createdAt,value
2023-01-13T00:02:32.253Z,53.60
2023-01-13T00:05:34.376Z,53.30
2023-01-13T00:08:35.722Z,53.60
2023-01-13T00:11:36.969Z,53.50
2023-01-13T00:14:38.363Z,53.50
2023-01-13T00:17:39.668Z,53.90
2023-01-13T00:20:41.496Z,53.60
2023-01-13T00:23:43.227Z,53.50
2023-01-13T00:26:44.509Z,53.70
2023-01-13T00:29:45.873Z,53.70
2023-01-13T00:32:47.147Z,53.20
2023-01-13T00:35:56.338Z,53.90
2023-01-13T00:38:57.680Z,53.60
2023-01-13T00:42:09.864Z,53.80
2023-01-13T00:45:11.216Z,53.60
2023-01-13T00:48:12.563Z,53.70
2023-01-13T00:51:16.182Z,53.80
2023-01-13T00:54:18.107Z,53.60
2023-01-13T00:57:19.384Z,53.60
2023-01-13T01:00:20.688Z,54.00
2023-01-13T01:03:21.932Z,53.70
2023-01-13T01:06:24.999Z,53.80
2023-01-13T01:09:31.804Z,53.70
2023-01-13T01:12:33.853Z,53.60
2023-01-13T01:15:38.933Z,53.70
2023-01-13T01:18:41.096Z,53.80
2023-01-13T01:21:42.875Z,53.70
2023-01-13T01:24:44.132Z,53.90
2023-01-13T01:27:45.347Z,53.60
2023-01-13T01:30:46.548Z,53.70
2023-01-13T01:33:47.836Z,53.80
2023-01-13T01:36:49.767Z,53.70
2023-01-13T01:39:51.051Z,53.70
2023-01-13T01:43:06.940Z,53.60
2023-01-13T01:46:08.345Z,53.60
2023-01-13T01:49:11.656Z,53.90
2023-01-13T01:52:15.437Z,53.70
2023-01-13T01:55:18.093Z,54.80
2023-01-13T01:58:21.001Z,53.80
2023-01-13T02:01:22.410Z,53.60
2023-01-13T02:04:25.714Z,53.70
2023-01-13T02:07:30.090Z,53.50
2023-01-13T02:10:31.738Z,53.70
2023-01-13T02:13:32.971Z,54.00
2023-01-13T02:16:35.865Z,53.70
2023-01-13T02:19:56.983Z,53.30
2023-01-13T02:23:31.190Z,53.40
2023-01-13T02:26:46.353Z,53.50
2023-01-13T02:30:06.368Z,53.40
2023-01-13T02:33:12.528Z,53.50
2023-01-13T02:36:20.503Z,53.30
2023-01-13T02:39:23.929Z,53.10
2023-01-13T02:42:40.685Z,53.40
2023-01-13T02:45:45.840Z,53.40
2023-01-13T02:48:49.506Z,53.50
2023-01-13T02:51:52.552Z,53.50
2023-01-13T02:54:54.647Z,54.20
2023-01-13T02:57:58.637Z,53.40
2023-01-13T03:01:00.601Z,53.50
2023-01-13T03:04:10.491Z,53.60
2023-01-13T03:07:12.892Z,53.30
2023-01-13T03:10:21.631Z,53.30
2023-01-13T03:13:28.836Z,53.40
2023-01-13T03:16:37.607Z,53.40
2023-01-13T03:19:44.213Z,53.30
2023-01-13T03:22:50.525Z,53.20
2023-01-13T03:25:55.884Z,53.50
2023-01-13T03:29:00.415Z,53.40
2023-01-13T03:32:06.361Z,53.30
2023-01-13T03:35:10.793Z,53.70
2023-01-13T03:38:14.449Z,53.30
2023-01-13T03:41:19.037Z,53.30
2023-01-13T03:44:24.733Z,53.30
2023-01-13T03:47:28.217Z,53.30
2023-01-13T03:50:30.964Z,53.20
2023-01-13T03:53:33.827Z,53.20
2023-01-13T03:56:37.273Z,53.20
2023-01-13T03:59:40.672Z,53.50
2023-01-13T04:02:47.441Z,53.30
2023-01-13T04:05:51.061Z,53.10
2023-01-13T04:08:54.997Z,53.40
2023-01-13T04:12:00.129Z,53.10
2023-01-13T04:15:01.449Z,53.20
2023-01-13T04:18:10.920Z,53.60
2023-01-13T04:21:12.432Z,53.30
2023-01-13T04:24:13.694Z,53.60
2023-01-13T04:27:15.218Z,53.20
2023-01-13T04:30:16.592Z,53.30
2023-01-13T04:33:18.893Z,53.30
2023-01-13T04:36:24.290Z,53.40
2023-01-13T04:39:25.531Z,53.30
2023-01-13T04:42:26.890Z,53.50
2023-01-13T04:45:28.130Z,52.90
2023-01-13T04:48:29.978Z,53.30
2023-01-13T04:51:31.332Z,53.20
2023-01-13T04:54:32.568Z,53.20
2023-01-13T04:57:34.404Z,53.20
2023-01-13T05:00:36.023Z,53.10
2023-01-13T05:03:37.854Z,53.10
2023-01-13T05:06:39.071Z,53.50
2023-01-13T05:09:40.350Z,53.10
2023-01-13T05:12:56.259Z,53.10
2023-01-13T05:16:11.429Z,53.10
2023-01-13T05:19:13.406Z,53.20
2023-01-13T05:22:29.752Z,53.20
2023-01-13T05:25:31.550Z,53.20
2023-01-13T05:28:33.487Z,53.30
2023-01-13T05:31:34.796Z,52.80
2023-01-13T05:34:36.662Z,53.20
2023-01-13T05:37:38.551Z,53.00
2023-01-13T05:40:50.862Z,53.00
2023-01-13T05:43:52.124Z,53.10
2023-01-13T05:46:53.464Z,53.20
2023-01-13T05:49:55.394Z,53.20
2023-01-13T05:52:56.809Z,53.10
2023-01-13T05:55:58.081Z,53.30
2023-01-13T05:58:59.309Z,52.90
2023-01-13T06:02:00.540Z,52.80
2023-01-13T06:05:02.370Z,53.00
2023-01-13T06:08:04.282Z,53.20
2023-01-13T06:11:05.610Z,52.90
2023-01-13T06:14:06.904Z,52.80
2023-01-13T06:17:08.342Z,52.90
2023-01-13T06:20:10.990Z,53.00
2023-01-13T06:23:12.385Z,52.80
2023-01-13T06:26:15.463Z,53.20
2023-01-13T06:29:16.864Z,52.70
2023-01-13T06:32:18.921Z,53.30
2023-01-13T06:35:22.685Z,52.90
2023-01-13T06:38:24.877Z,53.00
2023-01-13T06:41:42.107Z,52.80
2023-01-13T06:44:43.924Z,53.10
2023-01-13T06:47:45.142Z,52.80
2023-01-13T06:50:47.125Z,52.80
2023-01-13T06:53:48.560Z,52.80
2023-01-13T06:56:49.865Z,53.00
2023-01-13T06:59:51.223Z,52.40
2023-01-13T07:02:52.924Z,52.50
2023-01-13T07:05:55.204Z,52.50
2023-01-13T07:08:56.504Z,53.10
2023-01-13T07:11:57.841Z,52.50
2023-01-13T07:15:10.869Z,53.00
2023-01-13T07:18:12.114Z,52.60
2023-01-13T07:21:17.971Z,53.00
2023-01-13T07:24:19.664Z,52.70
2023-01-13T07:27:20.955Z,52.70
2023-01-13T07:30:22.243Z,52.80
2023-01-13T07:33:23.846Z,53.00
2023-01-13T07:36:25.913Z,52.60
2023-01-13T07:39:27.264Z,52.70
2023-01-13T07:42:40.896Z,52.50
2023-01-13T07:45:42.273Z,52.80
2023-01-13T07:48:43.582Z,52.30
2023-01-13T07:51:45.525Z,52.90
2023-01-13T07:54:46.963Z,52.60
2023-01-13T07:57:48.348Z,52.80
2023-01-13T08:00:49.636Z,52.30
2023-01-13T08:03:52.130Z,52.70
2023-01-13T08:06:54.162Z,51.00
2023-01-13T08:09:55.399Z,52.70
2023-01-13T08:13:10.870Z,52.40
2023-01-13T08:16:12.895Z,52.30
2023-01-13T08:19:14.200Z,52.30
2023-01-13T08:22:16.457Z,52.50
2023-01-13T08:25:18.050Z,52.40
2023-01-13T08:28:19.369Z,52.50
2023-01-13T08:31:21.027Z,52.30
2023-01-13T08:34:22.324Z,52.40
2023-01-13T08:37:24.148Z,52.20
2023-01-13T08:40:26.471Z,52.40
2023-01-13T08:43:27.771Z,51.90
2023-01-13T08:46:29.120Z,52.20
2023-01-13T08:49:30.466Z,52.00
2023-01-13T08:52:32.419Z,52.20
2023-01-13T08:55:33.833Z,51.90
2023-01-13T08:58:35.087Z,52.10
2023-01-13T09:01:38.425Z,51.70
2023-01-13T09:04:40.254Z,51.90
2023-01-13T09:07:42.525Z,51.70
2023-01-13T09:10:43.770Z,52.10
2023-01-13T09:13:44.916Z,51.80
2023-01-13T09:16:46.478Z,51.10
2023-01-13T09:19:47.797Z,51.30
2023-01-13T09:22:49.676Z,51.60
2023-01-13T09:25:52.117Z,51.40
2023-01-13T09:28:53.423Z,51.60
2023-01-13T09:31:57.033Z,51.30
2023-01-13T09:34:59.222Z,51.50
2023-01-13T09:38:01.201Z,49.90
2023-01-13T09:41:22.937Z,51.50
2023-01-13T09:44:26.239Z,51.10
2023-01-13T09:47:30.312Z,51.30
2023-01-13T09:50:38.805Z,51.80
2023-01-13T09:53:46.774Z,51.30
2023-01-13T09:56:48.214Z,51.20
2023-01-13T09:59:49.888Z,51.50
2023-01-13T10:03:05.582Z,51.30
2023-01-13T10:06:10.639Z,51.20
2023-01-13T10:09:13.780Z,51.10
2023-01-13T10:12:31.788Z,51.10
2023-01-13T10:15:33.230Z,50.80
2023-01-13T10:18:38.476Z,50.80
2023-01-13T10:21:46.750Z,50.90
2023-01-13T10:24:55.298Z,50.60
2023-01-13T10:28:03.439Z,50.80
2023-01-13T10:31:11.496Z,50.90
2023-01-13T10:34:12.822Z,50.80
2023-01-13T10:37:19.313Z,50.80
2023-01-13T10:40:21.410Z,50.60
2023-01-13T10:43:23.249Z,51.00
2023-01-13T10:46:24.532Z,50.50
2023-01-13T10:49:27.732Z,50.80
2023-01-13T11:01:33.981Z,48.40
2023-01-13T11:04:36.119Z,50.90
2023-01-13T11:07:38.465Z,50.60
2023-01-13T11:10:43.836Z,50.70
2023-01-13T11:14:00.424Z,50.80
2023-01-13T11:17:08.961Z,50.80
2023-01-13T11:20:15.138Z,50.60
2023-01-13T11:23:18.020Z,50.70
2023-01-13T11:26:22.467Z,50.50
2023-01-13T11:29:27.404Z,50.70
2023-01-13T11:32:33.048Z,50.20
2023-01-13T11:35:37.578Z,50.70
2023-01-13T11:38:42.508Z,50.30
2023-01-13T11:42:06.720Z,50.50
2023-01-13T11:45:16.043Z,50.20
2023-01-13T11:48:20.482Z,50.40
2023-01-13T11:51:26.377Z,50.30
2023-01-13T11:54:42.888Z,50.40
2023-01-13T11:57:50.078Z,50.00
2023-01-13T12:01:06.444Z,50.30
2023-01-13T12:04:23.143Z,49.90
2023-01-13T12:07:30.849Z,49.80
2023-01-13T12:10:38.665Z,50.00
2023-01-13T12:13:49.472Z,50.20
2023-01-13T12:16:52.074Z,50.10
2023-01-13T12:19:54.615Z,47.90
2023-01-13T12:22:58.412Z,50.30
2023-01-13T12:26:04.658Z,50.20
2023-01-13T12:29:06.539Z,50.00
2023-01-13T12:32:11.911Z,49.80
2023-01-13T12:35:28.202Z,49.90
2023-01-13T12:38:34.492Z,50.10
2023-01-13T12:42:00.332Z,49.80
2023-01-13T12:45:06.226Z,49.40
2023-01-13T12:48:22.329Z,49.80
2023-01-13T12:51:25.208Z,50.10
2023-01-13T12:54:41.649Z,49.90
2023-01-13T12:57:57.875Z,50.00
2023-01-13T13:01:00.451Z,49.70
2023-01-13T13:04:10.252Z,50.00
2023-01-13T13:07:14.763Z,49.70
2023-01-13T13:10:19.493Z,48.20
2023-01-13T13:13:38.701Z,49.60
2023-01-13T13:16:46.037Z,50.00
2023-01-13T13:19:48.443Z,49.70
2023-01-13T13:22:50.661Z,49.50
2023-01-13T13:26:00.663Z,49.30
2023-01-13T13:29:16.821Z,49.60
2023-01-13T13:32:30.213Z,49.40
2023-01-13T13:35:40.375Z,49.70
2023-01-13T13:38:59.978Z,49.50
2023-01-13T13:42:19.779Z,49.70
2023-01-13T13:45:39.193Z,49.50
2023-01-13T13:48:50.075Z,49.60
2023-01-13T13:51:55.289Z,49.20
2023-01-13T13:54:58.567Z,49.50
2023-01-13T13:58:00.780Z,49.20
2023-01-13T14:01:05.800Z,49.40
2023-01-13T14:04:12.373Z,49.30
2023-01-13T14:07:17.178Z,49.20
2023-01-13T14:10:20.941Z,49.10
2023-01-13T14:13:24.917Z,49.20
2023-01-13T14:16:26.434Z,49.10
2023-01-13T14:19:29.771Z,49.70
2023-01-13T14:22:32.349Z,49.10
2023-01-13T14:25:36.353Z,49.20
2023-01-13T14:28:39.904Z,48.90
2023-01-13T14:31:41.566Z,48.90
2023-01-13T14:34:42.967Z,48.90
2023-01-13T14:37:45.278Z,49.10
2023-01-13T14:40:47.228Z,48.80
2023-01-13T14:43:49.236Z,49.10
2023-01-13T14:46:51.162Z,49.00
2023-01-13T14:49:56.212Z,49.20
2023-01-13T14:52:59.854Z,49.00
2023-01-13T14:56:15.990Z,49.00
2023-01-13T14:59:30.156Z,48.50
2023-01-13T15:02:41.054Z,49.20
2023-01-13T15:05:46.848Z,48.60
2023-01-13T15:08:49.288Z,49.10
2023-01-13T15:11:53.479Z,48.90
2023-01-13T15:14:54.776Z,49.10
2023-01-13T15:17:56.789Z,48.80
2023-01-13T15:20:58.298Z,49.10
2023-01-13T15:23:59.775Z,49.00
2023-01-13T15:27:03.614Z,49.00
2023-01-13T15:30:13.242Z,48.70
2023-01-13T15:33:15.417Z,48.80
2023-01-13T15:36:22.754Z,48.90
2023-01-13T15:39:24.609Z,48.80
2023-01-13T15:42:39.907Z,48.90
2023-01-13T15:45:56.284Z,49.00
2023-01-13T15:48:59.834Z,48.70
2023-01-13T15:52:02.308Z,48.80
2023-01-13T15:55:03.756Z,48.60
2023-01-13T15:58:05.109Z,49.10
2023-01-13T16:01:07.615Z,48.70
2023-01-13T16:04:09.745Z,48.80
2023-01-13T16:07:12.543Z,48.80
2023-01-13T16:10:16.062Z,48.80
2023-01-13T16:13:17.662Z,48.60
2023-01-13T16:16:20.861Z,49.00
2023-01-13T16:19:22.749Z,48.70
2023-01-13T16:22:24.097Z,48.90
2023-01-13T16:25:26.280Z,48.60
2023-01-13T16:28:27.548Z,48.70
2023-01-13T16:31:31.010Z,48.60
2023-01-13T16:34:32.898Z,48.70
2023-01-13T16:37:34.335Z,48.60
2023-01-13T16:40:35.957Z,48.90
2023-01-13T16:43:37.712Z,48.70
2023-01-13T16:46:39.107Z,48.60
2023-01-13T16:49:41.026Z,48.60
2023-01-13T16:52:42.367Z,48.80
2023-01-13T16:55:43.783Z,48.60
2023-01-13T16:58:45.132Z,48.90
2023-01-13T17:01:46.534Z,48.10
2023-01-13T17:04:48.430Z,48.70
2023-01-13T17:07:49.691Z,48.70
2023-01-13T17:10:50.949Z,48.60
2023-01-13T17:13:52.371Z,48.60
2023-01-13T17:16:54.923Z,48.90
2023-01-13T17:19:56.885Z,48.60
2023-01-13T17:22:58.830Z,49.00
2023-01-13T17:26:00.115Z,48.50
2023-01-13T17:29:01.512Z,49.00
2023-01-13T17:32:02.964Z,48.60
2023-01-13T17:35:06.795Z,48.80
2023-01-13T17:38:08.285Z,48.60
2023-01-13T17:41:09.553Z,48.90
2023-01-13T17:44:12.352Z,48.70
2023-01-13T17:47:13.604Z,48.90
2023-01-13T17:50:16.004Z,48.70
2023-01-13T17:53:17.361Z,48.60
2023-01-13T17:56:19.002Z,48.30
2023-01-13T17:59:21.201Z,48.50
2023-01-13T18:02:22.932Z,48.50
2023-01-13T18:05:24.799Z,49.00
2023-01-13T18:08:26.108Z,48.70
2023-01-13T18:11:27.394Z,48.90
2023-01-13T18:14:28.812Z,48.70
2023-01-13T18:17:30.025Z,49.00
2023-01-13T18:20:46.680Z,48.80
2023-01-13T18:23:57.433Z,48.80
2023-01-13T18:27:10.141Z,48.70
2023-01-13T18:30:11.968Z,48.30
2023-01-13T18:33:13.280Z,48.80
2023-01-13T18:36:15.091Z,49.20
2023-01-13T18:39:17.203Z,48.80
2023-01-13T18:42:29.924Z,49.20
2023-01-13T18:45:31.643Z,48.80
2023-01-13T18:48:33.175Z,48.10
2023-01-13T18:51:35.143Z,49.00
2023-01-13T18:54:36.467Z,49.30
2023-01-13T18:57:39.346Z,48.60
2023-01-13T19:00:40.738Z,49.30
2023-01-13T19:03:41.998Z,49.10
2023-01-13T19:06:48.278Z,50.20
2023-01-13T19:09:49.623Z,49.20
2023-01-13T19:12:50.881Z,49.50
2023-01-13T19:15:52.338Z,49.10
2023-01-13T19:18:53.651Z,49.40
2023-01-13T19:21:55.701Z,49.10
2023-01-13T19:24:57.434Z,49.60
2023-01-13T19:27:58.844Z,49.20
2023-01-13T19:31:00.344Z,49.60
2023-01-13T19:34:01.597Z,49.40
2023-01-13T19:37:05.636Z,49.70
2023-01-13T19:40:08.430Z,49.40
2023-01-13T19:43:19.961Z,49.20
2023-01-13T19:46:21.390Z,49.30
2023-01-13T19:49:22.682Z,49.80
2023-01-13T19:52:24.569Z,49.50
2023-01-13T19:55:25.909Z,49.30
2023-01-13T19:58:28.286Z,49.70
2023-01-13T20:01:34.213Z,49.80
2023-01-13T20:04:37.573Z,49.60
2023-01-13T20:07:39.414Z,49.70
2023-01-13T20:10:42.003Z,49.70
2023-01-13T20:13:43.274Z,49.80
2023-01-13T20:16:44.701Z,49.50
2023-01-13T20:19:46.269Z,49.70
2023-01-13T20:22:49.039Z,49.90
2023-01-13T20:25:50.441Z,50.60
2023-01-13T20:28:51.778Z,49.80
2023-01-13T20:31:53.332Z,50.10
2023-01-13T20:34:54.588Z,49.70
2023-01-13T20:37:56.473Z,50.10
2023-01-13T20:40:57.992Z,49.90
2023-01-13T20:43:59.071Z,49.60
2023-01-13T20:47:01.808Z,49.90
2023-01-13T20:50:03.231Z,49.80
2023-01-13T20:53:05.057Z,50.10
2023-01-13T20:56:06.721Z,50.20
2023-01-13T20:59:08.311Z,50.00
2023-01-13T21:02:11.622Z,49.70
2023-01-13T21:05:12.856Z,49.90
2023-01-13T21:08:14.681Z,50.30
2023-01-13T21:11:36.089Z,50.10
2023-01-13T21:14:49.973Z,49.80
2023-01-13T21:18:06.186Z,50.10
2023-01-13T21:21:14.654Z,50.40
2023-01-13T21:24:16.484Z,50.10
2023-01-13T21:27:17.794Z,50.10
2023-01-13T21:30:19.542Z,50.10
2023-01-13T21:33:21.571Z,50.40
2023-01-13T21:36:22.819Z,50.00
2023-01-13T21:39:24.939Z,50.40
2023-01-13T21:42:40.067Z,50.20
2023-01-13T21:45:56.048Z,50.30
2023-01-13T21:48:57.420Z,50.20
2023-01-13T21:51:58.653Z,50.20
2023-01-13T21:55:15.164Z,50.40
2023-01-13T21:58:16.418Z,50.70
2023-01-13T22:01:18.178Z,50.30
2023-01-13T22:04:21.491Z,50.20
2023-01-13T22:07:22.855Z,50.40
2023-01-13T22:10:25.617Z,50.60
2023-01-13T22:13:40.084Z,50.40
2023-01-13T22:16:48.221Z,50.20
2023-01-13T22:19:50.647Z,50.40
2023-01-13T22:22:51.908Z,50.60
2023-01-13T22:26:00.156Z,50.60
2023-01-13T22:29:01.661Z,50.10
2023-01-13T22:32:03.064Z,50.30
2023-01-13T22:35:05.035Z,50.80
2023-01-13T22:38:06.394Z,50.50
2023-01-13T22:41:08.432Z,50.40
2023-01-13T22:44:09.834Z,50.40
2023-01-13T22:47:11.087Z,51.00
2023-01-13T22:50:12.686Z,50.70
2023-01-13T22:53:13.978Z,51.70
2023-01-13T22:56:16.845Z,50.40
2023-01-13T22:59:18.208Z,50.80
2023-01-13T23:02:19.717Z,50.70
2023-01-13T23:05:21.884Z,50.00
2023-01-13T23:08:23.638Z,49.20
2023-01-13T23:11:27.015Z,51.60
2023-01-13T23:14:28.408Z,50.80
2023-01-13T23:17:29.769Z,50.60
2023-01-13T23:20:31.135Z,50.80
2023-01-13T23:23:32.946Z,50.80
2023-01-13T23:26:35.234Z,50.80
2023-01-13T23:29:36.472Z,51.20
2023-01-13T23:32:37.863Z,50.70
2023-01-13T23:35:39.192Z,50.70
2023-01-13T23:38:41.194Z,51.10
2023-01-13T23:41:44.051Z,50.90
2023-01-13T23:49:21.512Z,48.80
2023-01-13T23:52:22.857Z,51.40
2023-01-13T23:55:24.114Z,51.00
2023-01-13T23:58:26.125Z,51.40
